createdAt,value
2022-12-16T00:00:46.457Z,54.97
2022-12-16T00:04:49.303Z,53.37
2022-12-16T00:08:53.646Z,57.73
2022-12-16T00:12:58.948Z,54.47
2022-12-16T00:17:01.727Z,48.73
2022-12-16T00:21:04.752Z,52.03
2022-12-16T00:25:08.419Z,56.43
2022-12-16T00:29:12.523Z,50.47
2022-12-16T00:33:15.254Z,52.27
2022-12-16T00:37:18.108Z,53.33
2022-12-16T00:41:20.887Z,54.20
2022-12-16T00:45:25.113Z,43.93
2022-12-16T00:49:28.025Z,52.90
2022-12-16T00:53:31.280Z,53.70
2022-12-16T00:57:34.245Z,47.27
2022-12-16T01:01:38.462Z,53.87
2022-12-16T01:05:41.365Z,53.70
2022-12-16T01:09:44.145Z,52.67
2022-12-16T01:13:47.914Z,49.23
2022-12-16T01:17:52.071Z,45.60
2022-12-16T01:21:54.814Z,58.67
2022-12-16T01:26:00.060Z,49.73
2022-12-16T01:30:02.914Z,47.87
2022-12-16T01:34:07.176Z,54.37
2022-12-16T01:38:09.906Z,57.43
2022-12-16T01:42:13.789Z,57.37
2022-12-16T01:46:23.232Z,51.73
2022-12-16T01:50:29.843Z,50.63
2022-12-16T01:54:37.147Z,56.53
2022-12-16T01:58:42.290Z,56.57
2022-12-16T02:02:47.799Z,48.87
2022-12-16T02:06:54.158Z,62.23
2022-12-16T02:11:14.821Z,59.13
2022-12-16T02:15:31.160Z,52.10
2022-12-16T02:20:06.408Z,51.87
2022-12-16T02:24:42.271Z,47.47
2022-12-16T02:29:09.233Z,66.00
2022-12-16T02:33:29.650Z,48.60
2022-12-16T02:37:39.144Z,56.57
2022-12-16T02:41:48.250Z,53.20
2022-12-16T02:45:51.747Z,55.87
2022-12-16T02:49:57.299Z,55.70
2022-12-16T02:54:00.049Z,51.60
2022-12-16T02:58:17.546Z,55.27
2022-12-16T03:02:26.269Z,53.93
2022-12-16T03:06:32.932Z,59.23
2022-12-16T03:10:39.783Z,60.00
2022-12-16T03:14:47.070Z,50.37
2022-12-16T03:18:54.940Z,61.60
2022-12-16T03:23:04.039Z,53.10
2022-12-16T03:27:12.678Z,52.37
2022-12-16T03:31:25.387Z,54.60
2022-12-16T03:35:33.324Z,64.10
2022-12-16T03:39:41.906Z,62.83
2022-12-16T03:43:45.047Z,57.97
2022-12-16T03:47:51.208Z,57.83
2022-12-16T03:51:55.286Z,57.33
2022-12-16T03:55:59.364Z,52.03
2022-12-16T04:00:02.147Z,60.50
2022-12-16T04:04:14.562Z,52.87
2022-12-16T04:08:17.322Z,50.50
2022-12-16T04:12:39.277Z,56.67
2022-12-16T04:16:59.973Z,56.63
2022-12-16T04:21:21.799Z,53.37
2022-12-16T04:25:27.831Z,62.40
2022-12-16T04:29:32.298Z,57.57
2022-12-16T04:33:52.987Z,53.83
2022-12-16T04:38:13.241Z,54.47
2022-12-16T04:42:33.322Z,53.33
2022-12-16T04:46:55.428Z,62.23
2022-12-16T04:51:15.799Z,50.03
2022-12-16T04:55:36.138Z,52.40
2022-12-16T04:59:56.560Z,51.17
2022-12-16T05:04:18.127Z,52.23
2022-12-16T05:08:38.442Z,46.83
2022-12-16T05:12:58.911Z,49.47
2022-12-16T05:17:19.320Z,56.43
2022-12-16T05:21:40.887Z,57.13
2022-12-16T05:26:01.215Z,49.07
2022-12-16T05:30:21.770Z,56.80
2022-12-16T05:34:42.177Z,57.80
2022-12-16T05:39:03.910Z,51.77
2022-12-16T05:43:24.295Z,60.80
2022-12-16T05:47:45.581Z,59.13
2022-12-16T05:52:06.081Z,60.40
2022-12-16T05:56:27.715Z,109.83
2022-12-16T06:00:48.206Z,55.40
2022-12-16T06:05:19.799Z,55.10
2022-12-16T06:09:40.475Z,52.00
2022-12-16T06:14:02.271Z,57.90
2022-12-16T06:18:22.809Z,56.23
2022-12-16T06:22:43.269Z,58.47
2022-12-16T06:27:03.371Z,47.20
2022-12-16T06:31:25.219Z,56.67
2022-12-16T06:35:45.321Z,58.37
2022-12-16T06:40:05.829Z,54.03
2022-12-16T06:44:26.207Z,60.67
2022-12-16T06:48:47.875Z,62.40
2022-12-16T06:53:08.196Z,58.40
2022-12-16T06:57:29.090Z,56.97
2022-12-16T07:01:49.710Z,56.50
2022-12-16T07:06:13.366Z,54.50
2022-12-16T07:10:33.662Z,56.87
2022-12-16T07:14:53.718Z,57.80
2022-12-16T07:19:14.061Z,50.90
2022-12-16T07:23:36.206Z,61.50
2022-12-16T07:27:56.757Z,64.20
2022-12-16T07:32:17.153Z,65.73
2022-12-16T07:36:37.534Z,58.23
2022-12-16T07:40:55.674Z,66.03
2022-12-16T07:45:16.030Z,51.47
2022-12-16T07:49:36.188Z,52.47
2022-12-16T07:53:56.578Z,65.43
2022-12-16T07:58:23.654Z,65.50
2022-12-16T08:02:44.367Z,61.90
2022-12-16T08:07:05.113Z,65.27
2022-12-16T08:11:25.450Z,66.53
2022-12-16T08:15:46.972Z,66.00
2022-12-16T08:20:03.590Z,78.57
2022-12-16T08:24:24.108Z,74.03
2022-12-16T08:28:45.139Z,74.67
2022-12-16T08:33:16.637Z,81.53
2022-12-16T08:37:39.342Z,82.60
2022-12-16T08:41:59.704Z,97.40
2022-12-16T08:46:20.149Z,68.57
2022-12-16T08:50:41.674Z,80.80
2022-12-16T08:55:02.018Z,78.30
2022-12-16T08:59:22.997Z,89.47
2022-12-16T09:03:43.572Z,79.93
2022-12-16T09:08:05.108Z,98.27
2022-12-16T09:12:25.520Z,78.20
2022-12-16T09:16:45.852Z,107.80
2022-12-16T09:21:06.272Z,109.00
2022-12-16T09:25:28.108Z,101.43
2022-12-16T09:29:48.345Z,97.10
2022-12-16T09:34:09.028Z,78.90
2022-12-16T09:38:29.152Z,58.87
2022-12-16T09:43:01.635Z,67.23
2022-12-16T09:47:28.904Z,67.53
2022-12-16T09:51:50.336Z,64.93
2022-12-16T09:56:11.825Z,83.23
2022-12-16T10:00:40.307Z,72.93
2022-12-16T10:05:10.436Z,100.90
2022-12-16T10:09:40.056Z,93.93
2022-12-16T10:14:07.478Z,100.47
2022-12-16T10:18:43.601Z,95.27
2022-12-16T10:23:12.309Z,82.97
2022-12-16T10:27:34.466Z,102.97
2022-12-16T10:31:56.270Z,99.40
2022-12-16T10:36:18.175Z,89.40
2022-12-16T10:40:42.801Z,109.43
2022-12-16T10:45:09.210Z,101.87
2022-12-16T10:49:33.837Z,116.00
2022-12-16T10:53:58.387Z,133.27
2022-12-16T10:58:34.216Z,133.80
2022-12-16T11:02:56.026Z,94.83
2022-12-16T11:07:16.842Z,121.53
2022-12-16T11:11:43.934Z,101.33
2022-12-16T11:16:04.149Z,99.60
2022-12-16T11:20:29.854Z,119.00
2022-12-16T11:24:50.762Z,102.70
2022-12-16T11:29:28.496Z,102.70
2022-12-16T11:33:52.396Z,117.70
2022-12-16T11:38:15.066Z,110.00
2022-12-16T11:42:39.963Z,101.87
2022-12-16T11:47:01.721Z,103.17
2022-12-16T11:51:23.909Z,96.33
2022-12-16T11:56:11.242Z,86.07
2022-12-16T12:00:35.474Z,110.90
2022-12-16T12:04:53.826Z,106.47
2022-12-16T12:09:19.471Z,103.77
2022-12-16T12:13:57.224Z,107.77
2022-12-16T12:18:23.633Z,107.30
2022-12-16T12:22:53.283Z,101.80
2022-12-16T12:27:23.799Z,91.23
2022-12-16T12:31:55.061Z,91.00
2022-12-16T12:36:23.050Z,82.70
2022-12-16T12:40:56.756Z,84.57
2022-12-16T12:45:35.481Z,87.10
2022-12-16T12:50:02.051Z,80.93
2022-12-16T12:54:34.097Z,71.90
2022-12-16T12:58:57.683Z,77.17
2022-12-16T13:03:36.130Z,72.03
2022-12-16T13:07:56.705Z,78.40
2022-12-16T13:12:40.013Z,71.93
2022-12-16T13:17:26.095Z,77.90
2022-12-16T13:22:05.105Z,75.70
2022-12-16T13:26:25.497Z,77.53
2022-12-16T13:30:47.412Z,73.13
2022-12-16T13:35:20.779Z,78.40
2022-12-16T13:39:43.493Z,79.93
2022-12-16T13:44:07.844Z,75.63
2022-12-16T13:49:00.684Z,90.23
2022-12-16T13:53:24.953Z,69.50
2022-12-16T13:57:48.970Z,87.47
2022-12-16T14:02:12.477Z,85.63
2022-12-16T14:06:41.441Z,76.63
2022-12-16T14:11:03.031Z,76.10
2022-12-16T14:15:29.783Z,76.63
2022-12-16T14:20:00.266Z,72.17
2022-12-16T14:24:27.927Z,81.80
2022-12-16T14:28:54.354Z,75.07
2022-12-16T14:33:15.067Z,83.67
2022-12-16T14:37:36.914Z,67.93
2022-12-16T14:41:57.158Z,73.37
2022-12-16T14:46:19.095Z,84.23
2022-12-16T14:50:44.049Z,69.00
2022-12-16T14:55:04.682Z,85.43
2022-12-16T14:59:31.735Z,80.87
2022-12-16T15:03:57.509Z,84.33
2022-12-16T15:08:18.871Z,77.80
2022-12-16T15:12:42.521Z,76.60
2022-12-16T15:17:04.363Z,80.67
2022-12-16T15:21:27.117Z,73.73
2022-12-16T15:25:47.520Z,71.57
2022-12-16T15:30:07.777Z,75.90
2022-12-16T15:34:44.368Z,80.00
2022-12-16T15:39:06.342Z,69.80
2022-12-16T15:43:40.079Z,75.30
2022-12-16T15:48:00.348Z,67.03
2022-12-16T15:52:20.921Z,70.17
2022-12-16T15:56:45.327Z,73.50
2022-12-16T16:01:16.030Z,68.23
2022-12-16T16:05:39.016Z,72.97
2022-12-16T16:09:59.206Z,68.53
2022-12-16T16:14:21.045Z,77.77
2022-12-16T16:18:41.162Z,66.47
2022-12-16T16:23:01.513Z,64.67
2022-12-16T16:27:24.929Z,60.07
2022-12-16T16:31:46.895Z,73.43
2022-12-16T16:36:07.267Z,73.13
2022-12-16T16:40:36.861Z,77.57
2022-12-16T16:44:57.257Z,74.87
2022-12-16T16:49:19.284Z,78.97
2022-12-16T16:53:39.573Z,81.83
2022-12-16T16:57:59.866Z,76.07
2022-12-16T17:02:20.362Z,95.93
2022-12-16T17:06:42.064Z,80.03
2022-12-16T17:11:02.625Z,82.80
2022-12-16T17:15:37.263Z,76.30
2022-12-16T17:19:57.660Z,96.13
2022-12-16T17:24:19.546Z,87.73
2022-12-16T17:28:39.823Z,88.47
2022-12-16T17:33:00.251Z,83.87
2022-12-16T17:37:20.637Z,81.03
2022-12-16T17:41:42.772Z,101.37
2022-12-16T17:46:14.450Z,81.63
2022-12-16T17:50:35.051Z,91.77
2022-12-16T17:54:55.442Z,97.37
2022-12-16T17:59:18.164Z,88.37
2022-12-16T18:03:39.397Z,90.87
2022-12-16T18:07:59.858Z,86.63
2022-12-16T18:12:20.096Z,90.20
2022-12-16T18:16:41.821Z,104.00
2022-12-16T18:21:02.395Z,80.97
2022-12-16T18:25:23.104Z,99.20
2022-12-16T18:29:43.351Z,91.47
2022-12-16T18:34:04.908Z,111.60
2022-12-16T18:38:21.811Z,99.53
2022-12-16T18:42:42.073Z,101.63
2022-12-16T18:47:04.232Z,112.03
2022-12-16T18:51:26.646Z,105.57
2022-12-16T18:55:47.205Z,126.27
2022-12-16T19:00:07.386Z,117.27
2022-12-16T19:04:27.605Z,118.83
2022-12-16T19:08:49.198Z,128.97
2022-12-16T19:13:14.376Z,162.67
2022-12-16T19:17:35.942Z,110.37
2022-12-16T19:26:37.680Z,127.20
2022-12-16T19:30:58.330Z,146.77
2022-12-16T19:35:33.723Z,133.03
2022-12-16T19:39:56.763Z,144.63
2022-12-16T19:44:23.065Z,134.27
2022-12-16T19:48:43.810Z,138.33
2022-12-16T19:53:05.208Z,132.40
2022-12-16T19:57:26.053Z,139.27
2022-12-16T20:01:48.576Z,147.90
2022-12-16T20:06:18.411Z,126.67
2022-12-16T20:10:39.137Z,125.57
2022-12-16T20:14:59.971Z,128.53
2022-12-16T20:19:22.192Z,157.23
2022-12-16T20:23:42.493Z,140.40
2022-12-16T20:28:02.909Z,147.00
2022-12-16T20:32:23.777Z,164.33
2022-12-16T20:36:45.636Z,158.37
2022-12-16T20:41:14.150Z,157.13
2022-12-16T20:45:34.800Z,139.03
2022-12-16T20:49:56.067Z,171.40
2022-12-16T20:54:17.933Z,151.07
2022-12-16T20:58:39.254Z,123.60
2022-12-16T21:02:59.526Z,143.83
2022-12-16T21:07:20.956Z,126.40
2022-12-16T21:11:43.050Z,128.33
2022-12-16T21:16:03.860Z,146.30
2022-12-16T21:20:21.932Z,130.47
2022-12-16T21:24:42.806Z,127.33
2022-12-16T21:29:05.176Z,173.60
2022-12-16T21:33:35.295Z,210.50
2022-12-16T21:37:55.830Z,158.70
2022-12-16T21:42:16.595Z,168.27
2022-12-16T21:46:38.212Z,133.27
2022-12-16T21:50:59.064Z,139.67
2022-12-16T21:55:19.334Z,173.10
2022-12-16T21:59:40.181Z,139.33
2022-12-16T22:04:13.924Z,181.40
2022-12-16T22:08:36.249Z,151.50
2022-12-16T22:12:56.391Z,167.83
2022-12-16T22:17:17.086Z,270.23
2022-12-16T22:21:38.590Z,137.10
2022-12-16T22:25:58.792Z,137.00
2022-12-16T22:30:19.271Z,181.07
2022-12-16T22:34:39.407Z,164.17
2022-12-16T22:39:01.135Z,208.67
2022-12-16T22:43:21.941Z,146.30
2022-12-16T22:47:42.381Z,140.37
2022-12-16T22:52:02.850Z,152.53
2022-12-16T22:56:36.542Z,198.33
2022-12-16T23:00:57.128Z,135.67
2022-12-16T23:05:21.076Z,145.87
2022-12-16T23:09:43.988Z,123.00
2022-12-16T23:14:05.803Z,181.77
2022-12-16T23:18:26.034Z,158.73
2022-12-16T23:22:46.531Z,167.63
2022-12-16T23:27:06.997Z,169.37
2022-12-16T23:31:28.971Z,156.10
2022-12-16T23:35:49.023Z,167.27
2022-12-16T23:40:09.181Z,189.70
2022-12-16T23:44:29.922Z,152.17
2022-12-16T23:48:56.559Z,156.70
2022-12-16T23:53:23.210Z,175.63
2022-12-16T23:57:43.561Z,140.63
